Time;durP1;ratioP1;P1;durP2;ratioP2;P2;SDS_P1;SDS_P2;PMS_P1;PMS_P2;Temp;Humidity;BMP_temperature;BMP_pressure;BME280_temperature;BME280_humidity;BME280_pressure;Samples;Min_cycle;Max_cycle;Signal;HPM_P1;HPM_P2
2024/03/20 00:00:43;;;;;;;12.13;5.45;;;;;;;;;;4966150;28;25119;-73
2024/03/20 00:03:09;;;;;;;11.02;4.85;;;;;;;;;;4966366;28;25058;-76
2024/03/20 00:05:35;;;;;;;11.35;5.25;;;;;;;;;;4966871;28;25071;-74
2024/03/20 00:08:01;;;;;;;13.70;5.78;;;;;;;;;;4972677;28;25066;-73
2024/03/20 00:10:27;;;;;;;11.73;5.40;;;;;;;;;;4964604;28;25133;-71
2024/03/20 00:12:53;;;;;;;18.67;6.72;;;;;;;;;;4965051;28;25049;-72
2024/03/20 00:15:20;;;;;;;19.58;6.57;;;;;;;;;;4972148;28;25094;-72
2024/03/20 00:17:47;;;;;;;19.42;5.75;;;;;;;;;;4975178;28;25079;-73
2024/03/20 00:20:13;;;;;;;20.17;6.38;;;;;;;;;;4967367;28;25062;-75
2024/03/20 00:22:39;;;;;;;17.35;5.65;;;;;;;;;;4976342;28;25106;-73
2024/03/20 00:25:05;;;;;;;26.80;8.50;;;;;;;;;;4974680;28;25047;-73
2024/03/20 00:27:31;;;;;;;11.07;5.57;;;;;;;;;;4971856;28;25075;-73
2024/03/20 00:29:57;;;;;;;16.33;6.43;;;;;;;;;;4976574;28;25094;-75
2024/03/20 00:32:23;;;;;;;10.23;5.70;;;;;;;;;;4974861;28;25053;-73
2024/03/20 00:34:49;;;;;;;15.95;6.55;;;;;;;;;;4976538;28;25097;-74
2024/03/20 00:37:15;;;;;;;18.80;6.07;;;;;;;;;;4978909;28;25114;-73
2024/03/20 00:39:41;;;;;;;17.33;6.40;;;;;;;;;;4974314;28;25076;-74
2024/03/20 00:42:08;;;;;;;12.52;6.15;;;;;;;;;;4980151;28;25146;-75
2024/03/20 00:44:37;;;;;;;15.43;5.70;;;;;;;;;;4980032;28;25079;-71
2024/03/20 00:47:06;;;;;;;14.30;5.93;;;;;;;;;;4978620;28;25079;-73
2024/03/20 00:49:32;;;;;;;19.58;6.72;;;;;;;;;;4975186;28;25096;-71
2024/03/20 00:51:59;;;;;;;15.95;6.88;;;;;;;;;;4972710;28;25107;-72
2024/03/20 00:54:25;;;;;;;17.00;6.63;;;;;;;;;;4972306;28;25092;-73
2024/03/20 00:56:51;;;;;;;15.50;6.43;;;;;;;;;;4978557;28;25078;-73
2024/03/20 00:59:20;;;;;;;15.18;6.30;;;;;;;;;;4972928;28;25104;-74
2024/03/20 01:01:46;;;;;;;14.80;6.85;;;;;;;;;;4972200;28;25077;-72
2024/03/20 01:04:12;;;;;;;17.25;7.32;;;;;;;;;;4974032;28;25088;-73
2024/03/20 01:06:38;;;;;;;19.23;7.15;;;;;;;;;;4976904;28;25045;-72
2024/03/20 01:09:05;;;;;;;14.32;6.47;;;;;;;;;;4976011;28;25080;-72
2024/03/20 01:11:31;;;;;;;19.40;7.30;;;;;;;;;;4981435;28;25082;-74
2024/03/20 01:13:57;;;;;;;19.58;8.30;;;;;;;;;;4978402;28;25068;-71
2024/03/20 01:16:28;;;;;;;13.98;7.60;;;;;;;;;;4978502;28;25097;-73
2024/03/20 01:18:54;;;;;;;16.23;7.85;;;;;;;;;;4986453;28;25094;-73
2024/03/20 01:21:20;;;;;;;18.63;7.95;;;;;;;;;;4970817;28;25086;-73
2024/03/20 01:23:46;;;;;;;23.00;9.55;;;;;;;;;;4968280;28;25088;-73
2024/03/20 01:26:13;;;;;;;13.82;7.25;;;;;;;;;;4975066;28;25063;-72
2024/03/20 01:28:39;;;;;;;14.73;8.90;;;;;;;;;;4970501;28;25073;-73
2024/03/20 01:31:05;;;;;;;16.45;8.10;;;;;;;;;;4970490;28;25065;-73
2024/03/20 01:33:31;;;;;;;18.55;8.38;;;;;;;;;;4964563;28;25140;-73
2024/03/20 01:35:57;;;;;;;15.95;8.07;;;;;;;;;;4969315;28;25069;-74
2024/03/20 01:38:24;;;;;;;18.90;8.95;;;;;;;;;;4967780;28;25053;-73
2024/03/20 01:40:50;;;;;;;18.05;8.52;;;;;;;;;;4972007;28;25062;-73
2024/03/20 01:43:20;;;;;;;18.75;8.50;;;;;;;;;;4982300;28;25066;-72
2024/03/20 01:45:49;;;;;;;18.70;8.48;;;;;;;;;;4982972;28;25082;-72
2024/03/20 01:48:17;;;;;;;22.38;9.32;;;;;;;;;;4992043;28;25091;-73
2024/03/20 01:50:44;;;;;;;23.98;9.50;;;;;;;;;;4990973;28;25061;-72
2024/03/20 01:53:12;;;;;;;18.25;9.13;;;;;;;;;;4972677;28;25059;-73
2024/03/20 01:55:38;;;;;;;19.33;9.32;;;;;;;;;;4982849;28;25148;-72
2024/03/20 01:58:04;;;;;;;18.10;9.25;;;;;;;;;;4980184;28;25096;-73
2024/03/20 02:00:30;;;;;;;14.88;8.65;;;;;;;;;;4978562;28;25074;-73
2024/03/20 02:02:58;;;;;;;18.45;9.57;;;;;;;;;;4980054;28;25059;-73
2024/03/20 02:05:24;;;;;;;15.80;7.93;;;;;;;;;;4971626;28;25070;-72
2024/03/20 02:07:53;;;;;;;14.57;8.32;;;;;;;;;;4975302;28;25128;-72
2024/03/20 02:10:19;;;;;;;17.30;9.13;;;;;;;;;;4980477;28;25175;-75
2024/03/20 02:12:46;;;;;;;17.92;8.52;;;;;;;;;;4976707;28;25164;-74
2024/03/20 02:15:12;;;;;;;18.75;9.70;;;;;;;;;;4966798;28;25078;-72
2024/03/20 02:17:41;;;;;;;18.10;9.52;;;;;;;;;;4967176;28;25081;-71
2024/03/20 02:20:09;;;;;;;19.88;9.23;;;;;;;;;;4965288;28;25075;-73
2024/03/20 02:22:41;;;;;;;21.50;9.45;;;;;;;;;;4973749;28;25049;-72
2024/03/20 02:25:07;;;;;;;;;;;;;;;;;;4966366;28;25076;-73
2024/03/20 02:27:33;;;;;;;15.50;7.65;;;;;;;;;;4987165;28;25069;-73
2024/03/20 02:29:59;;;;;;;17.77;9.57;;;;;;;;;;4975896;28;25079;-74
2024/03/20 02:32:25;;;;;;;18.58;9.18;;;;;;;;;;4983322;28;25075;-73
2024/03/20 02:34:51;;;;;;;24.40;10.00;;;;;;;;;;4988314;28;25071;-73
2024/03/20 02:37:17;;;;;;;20.77;10.15;;;;;;;;;;4990255;28;25107;-73
2024/03/20 02:39:43;;;;;;;16.70;9.20;;;;;;;;;;4983857;28;25072;-71
2024/03/20 02:42:09;;;;;;;15.80;9.93;;;;;;;;;;4980524;28;25089;-75
2024/03/20 02:44:35;;;;;;;19.73;10.10;;;;;;;;;;4974055;28;25051;-73
2024/03/20 02:47:01;;;;;;;19.08;9.05;;;;;;;;;;4975630;28;25089;-72
2024/03/20 02:49:27;;;;;;;18.67;9.30;;;;;;;;;;4970475;28;25095;-73
2024/03/20 02:51:53;;;;;;;13.73;8.40;;;;;;;;;;4973612;28;25075;-75
2024/03/20 02:54:19;;;;;;;18.75;9.88;;;;;;;;;;4980484;28;25121;-73
2024/03/20 02:56:45;;;;;;;19.38;9.27;;;;;;;;;;4972531;28;25098;-72
2024/03/20 02:59:11;;;;;;;25.40;9.68;;;;;;;;;;4979254;28;25151;-72
2024/03/20 03:01:37;;;;;;;16.30;9.73;;;;;;;;;;4971984;28;25076;-75
2024/03/20 03:04:03;;;;;;;22.58;10.50;;;;;;;;;;4982905;28;25106;-72
2024/03/20 03:06:30;;;;;;;19.20;9.85;;;;;;;;;;4974085;28;25141;-73
2024/03/20 03:08:55;;;;;;;21.75;9.38;;;;;;;;;;4978143;28;25055;-72
2024/03/20 03:11:21;;;;;;;21.60;10.18;;;;;;;;;;4967857;28;25073;-73
2024/03/20 03:13:47;;;;;;;23.60;9.68;;;;;;;;;;4974692;28;25069;-74
2024/03/20 03:16:14;;;;;;;25.38;9.88;;;;;;;;;;4974579;28;25132;-75
2024/03/20 03:18:40;;;;;;;22.92;10.48;;;;;;;;;;4968406;28;25059;-74
2024/03/20 03:21:10;;;;;;;25.15;10.73;;;;;;;;;;4971074;28;25056;-75
2024/03/20 03:23:36;;;;;;;26.65;10.68;;;;;;;;;;4972812;28;25090;-71
2024/03/20 03:26:03;;;;;;;20.23;10.27;;;;;;;;;;4968813;28;25062;-73
2024/03/20 03:28:29;;;;;;;17.80;10.35;;;;;;;;;;4965888;28;25069;-73
2024/03/20 03:30:55;;;;;;;21.30;10.07;;;;;;;;;;4974689;28;25101;-74
2024/03/20 03:33:21;;;;;;;16.33;10.15;;;;;;;;;;4961479;28;25081;-73
2024/03/20 03:35:47;;;;;;;19.73;9.93;;;;;;;;;;4967881;28;25049;-73
2024/03/20 03:38:13;;;;;;;22.95;10.65;;;;;;;;;;4969173;28;25064;-74
2024/03/20 03:40:39;;;;;;;18.58;10.38;;;;;;;;;;4971218;28;25064;-74
2024/03/20 03:43:05;;;;;;;25.52;11.10;;;;;;;;;;4968942;28;25079;-74
2024/03/20 03:45:31;;;;;;;19.02;10.50;;;;;;;;;;4967716;28;25161;-71
2024/03/20 03:47:57;;;;;;;23.10;11.30;;;;;;;;;;4968710;28;25074;-75
2024/03/20 03:50:23;;;;;;;19.42;10.77;;;;;;;;;;4967497;28;25077;-72
2024/03/20 03:52:50;;;;;;;20.20;10.02;;;;;;;;;;4964705;28;25107;-74
2024/03/20 03:55:16;;;;;;;22.30;10.82;;;;;;;;;;4965902;28;25156;-73
2024/03/20 03:57:42;;;;;;;21.50;11.60;;;;;;;;;;4964125;28;25121;-73
2024/03/20 04:00:10;;;;;;;25.58;13.02;;;;;;;;;;4961688;28;25056;-73
2024/03/20 04:02:36;;;;;;;23.80;11.82;;;;;;;;;;4966670;28;25065;-74
2024/03/20 04:05:04;;;;;;;24.80;11.00;;;;;;;;;;4965476;28;25084;-72
2024/03/20 04:07:30;;;;;;;24.38;12.20;;;;;;;;;;4963803;28;25066;-73
2024/03/20 04:09:56;;;;;;;17.70;10.57;;;;;;;;;;4967933;28;25085;-73
2024/03/20 04:12:22;;;;;;;19.35;10.98;;;;;;;;;;4967394;28;25120;-73
2024/03/20 04:14:48;;;;;;;25.75;11.93;;;;;;;;;;4966985;28;25147;-73
2024/03/20 04:17:14;;;;;;;22.83;11.73;;;;;;;;;;4963475;28;25121;-74
2024/03/20 04:19:40;;;;;;;21.10;11.38;;;;;;;;;;4968605;28;25102;-73
2024/03/20 04:22:06;;;;;;;26.30;11.73;;;;;;;;;;4969102;28;25098;-73
2024/03/20 04:24:33;;;;;;;25.90;12.20;;;;;;;;;;4966965;28;25059;-73
2024/03/20 04:27:00;;;;;;;21.52;11.32;;;;;;;;;;4961979;28;25059;-73
2024/03/20 04:29:26;;;;;;;18.05;11.00;;;;;;;;;;4965901;28;25054;-73
2024/03/20 04:31:53;;;;;;;20.83;10.90;;;;;;;;;;4962519;28;25065;-73
2024/03/20 04:34:20;;;;;;;20.23;11.40;;;;;;;;;;4959376;28;25072;-73
2024/03/20 04:36:46;;;;;;;25.98;12.18;;;;;;;;;;4969176;28;25066;-74
2024/03/20 04:39:12;;;;;;;26.70;12.85;;;;;;;;;;4962872;28;25112;-75
2024/03/20 04:41:38;;;;;;;30.45;12.55;;;;;;;;;;4964088;28;25165;-74
2024/03/20 04:44:04;;;;;;;19.25;12.90;;;;;;;;;;4963208;28;25061;-75
2024/03/20 04:46:32;;;;;;;19.13;12.75;;;;;;;;;;4965657;28;25068;-73
2024/03/20 04:48:58;;;;;;;20.52;12.10;;;;;;;;;;4965585;28;25079;-75
2024/03/20 04:51:24;;;;;;;24.77;13.27;;;;;;;;;;4961954;28;25154;-74
2024/03/20 04:53:51;;;;;;;19.20;12.70;;;;;;;;;;4960245;28;25065;-75
2024/03/20 04:56:17;;;;;;;24.88;13.93;;;;;;;;;;4970301;28;25070;-72
2024/03/20 04:58:43;;;;;;;24.45;11.73;;;;;;;;;;4965698;28;25146;-73
2024/03/20 05:01:09;;;;;;;23.65;12.68;;;;;;;;;;4969538;28;25142;-74
2024/03/20 05:03:35;;;;;;;24.30;13.43;;;;;;;;;;4964927;28;25051;-75
2024/03/20 05:06:01;;;;;;;23.38;13.68;;;;;;;;;;4964968;28;25061;-73
2024/03/20 05:08:28;;;;;;;24.33;13.27;;;;;;;;;;4964513;28;25057;-74
2024/03/20 05:10:54;;;;;;;20.55;12.68;;;;;;;;;;4969030;28;25094;-73
2024/03/20 05:13:20;;;;;;;24.75;12.63;;;;;;;;;;4963562;28;25105;-74
2024/03/20 05:15:46;;;;;;;23.77;12.60;;;;;;;;;;4964455;28;25067;-74
2024/03/20 05:18:12;;;;;;;21.85;12.63;;;;;;;;;;4962363;28;25094;-74
2024/03/20 05:20:38;;;;;;;23.38;14.07;;;;;;;;;;4972190;28;25125;-74
2024/03/20 05:23:04;;;;;;;21.35;12.15;;;;;;;;;;4966432;28;25058;-74
2024/03/20 05:25:35;;;;;;;23.98;12.85;;;;;;;;;;4982026;28;25047;-75
2024/03/20 05:28:01;;;;;;;23.85;13.75;;;;;;;;;;4977035;28;25069;-73
2024/03/20 05:30:27;;;;;;;21.65;13.13;;;;;;;;;;4978301;28;25050;-75
2024/03/20 05:32:53;;;;;;;22.23;13.18;;;;;;;;;;4977351;28;25081;-73
2024/03/20 05:35:19;;;;;;;25.80;14.70;;;;;;;;;;4974732;28;25061;-73
2024/03/20 05:37:45;;;;;;;29.08;16.33;;;;;;;;;;4981279;28;25085;-74
2024/03/20 05:40:12;;;;;;;25.02;15.07;;;;;;;;;;4975532;28;25085;-72
2024/03/20 05:42:39;;;;;;;20.30;13.55;;;;;;;;;;4972901;28;25074;-72
2024/03/20 05:45:05;;;;;;;29.38;14.85;;;;;;;;;;4969276;28;25050;-76
2024/03/20 05:47:32;;;;;;;25.25;13.93;;;;;;;;;;4964931;28;25086;-73
2024/03/20 05:49:58;;;;;;;24.45;13.57;;;;;;;;;;4969467;28;25061;-72
2024/03/20 05:52:24;;;;;;;20.73;11.98;;;;;;;;;;4967309;28;25102;-74
2024/03/20 05:54:51;;;;;;;26.38;14.07;;;;;;;;;;4970299;28;25061;-73
2024/03/20 05:57:18;;;;;;;29.83;13.90;;;;;;;;;;4969950;28;25096;-73
2024/03/20 05:59:44;;;;;;;24.20;14.43;;;;;;;;;;4970769;28;25069;-72
2024/03/20 06:02:10;;;;;;;26.83;14.45;;;;;;;;;;4972177;28;25067;-75
2024/03/20 06:04:36;;;;;;;23.52;13.93;;;;;;;;;;4974829;28;25087;-75
2024/03/20 06:07:04;;;;;;;21.85;13.50;;;;;;;;;;4964035;28;25078;-74
2024/03/20 06:09:32;;;;;;;20.38;13.90;;;;;;;;;;4983141;28;25062;-72
2024/03/20 06:11:58;;;;;;;22.75;12.65;;;;;;;;;;4972085;28;25058;-75
2024/03/20 06:14:25;;;;;;;24.25;13.25;;;;;;;;;;4978818;28;25062;-75
2024/03/20 06:16:51;;;;;;;21.80;13.02;;;;;;;;;;4967176;28;25135;-73
2024/03/20 06:19:17;;;;;;;25.13;14.02;;;;;;;;;;4972423;28;25062;-73
2024/03/20 06:21:44;;;;;;;25.40;13.98;;;;;;;;;;4969262;28;25056;-73
2024/03/20 06:24:11;;;;;;;25.77;13.30;;;;;;;;;;4975765;28;25073;-75
2024/03/20 06:26:36;;;;;;;22.98;14.45;;;;;;;;;;4960903;28;25058;-73
2024/03/20 06:29:02;;;;;;;20.52;13.18;;;;;;;;;;4969651;28;25064;-74
2024/03/20 06:31:29;;;;;;;27.05;12.65;;;;;;;;;;4983001;28;25077;-73
2024/03/20 06:33:55;;;;;;;22.30;12.35;;;;;;;;;;4982792;28;25106;-73
2024/03/20 06:36:21;;;;;;;25.88;13.38;;;;;;;;;;5001049;28;25104;-74
2024/03/20 06:38:47;;;;;;;22.63;13.55;;;;;;;;;;4979333;28;25104;-75
2024/03/20 06:41:15;;;;;;;24.90;13.93;;;;;;;;;;4987725;28;25073;-75
2024/03/20 06:43:41;;;;;;;20.00;12.90;;;;;;;;;;4971731;28;25106;-73
2024/03/20 06:46:08;;;;;;;23.90;13.05;;;;;;;;;;4978555;28;25090;-73
2024/03/20 06:48:34;;;;;;;26.33;13.43;;;;;;;;;;4973923;28;25149;-74
2024/03/20 06:51:00;;;;;;;20.33;13.00;;;;;;;;;;4973149;28;25079;-75
2024/03/20 06:53:26;;;;;;;20.38;13.38;;;;;;;;;;4977024;28;25154;-76
2024/03/20 06:55:56;;;;;;;25.33;13.13;;;;;;;;;;4976404;28;25074;-74
2024/03/20 06:58:25;;;;;;;22.42;12.57;;;;;;;;;;4980059;28;25099;-75
2024/03/20 07:00:50;;;;;;;24.15;13.02;;;;;;;;;;4978615;28;25072;-73
2024/03/20 07:03:18;;;;;;;24.33;12.80;;;;;;;;;;4974574;28;25050;-73
2024/03/20 07:05:44;;;;;;;20.88;12.98;;;;;;;;;;4973307;28;25067;-77
2024/03/20 07:08:13;;;;;;;21.30;13.02;;;;;;;;;;4970180;28;25061;-78
2024/03/20 07:10:40;;;;;;;26.50;13.88;;;;;;;;;;4976195;28;25064;-73
2024/03/20 07:13:07;;;;;;;21.95;12.93;;;;;;;;;;4976787;28;25076;-74
2024/03/20 07:15:34;;;;;;;18.40;13.75;;;;;;;;;;4969197;28;25101;-76
2024/03/20 07:18:00;;;;;;;20.75;14.05;;;;;;;;;;4978254;28;25090;-73
2024/03/20 07:20:26;;;;;;;25.80;14.70;;;;;;;;;;4964325;28;25074;-74
2024/03/20 07:22:52;;;;;;;25.95;14.10;;;;;;;;;;4976584;28;25059;-72
2024/03/20 07:25:18;;;;;;;19.15;13.75;;;;;;;;;;4975550;28;25140;-74
2024/03/20 07:27:44;;;;;;;22.05;13.95;;;;;;;;;;4975936;28;25069;-73
2024/03/20 07:30:11;;;;;;;22.65;12.85;;;;;;;;;;4963782;28;25098;-74
2024/03/20 07:32:37;;;;;;;26.20;13.80;;;;;;;;;;4971781;28;25045;-78
2024/03/20 07:35:04;;;;;;;25.15;12.73;;;;;;;;;;4964713;28;25148;-76
2024/03/20 07:37:30;;;;;;;21.17;14.13;;;;;;;;;;4966315;28;25196;-74
2024/03/20 07:39:56;;;;;;;25.50;12.52;;;;;;;;;;4963109;28;25056;-76
2024/03/20 07:42:22;;;;;;;21.17;11.93;;;;;;;;;;4973521;28;25057;-76
2024/03/20 07:44:49;;;;;;;16.45;11.93;;;;;;;;;;4977226;28;25062;-74
2024/03/20 07:47:15;;;;;;;26.05;11.68;;;;;;;;;;4969367;28;25059;-73
2024/03/20 07:49:41;;;;;;;20.42;11.43;;;;;;;;;;4974372;28;24967;-73
2024/03/20 07:52:07;;;;;;;19.60;12.15;;;;;;;;;;4974254;28;25141;-75
2024/03/20 07:54:33;;;;;;;19.70;11.40;;;;;;;;;;4974459;28;25077;-77
2024/03/20 07:56:59;;;;;;;20.38;9.93;;;;;;;;;;4983584;28;25049;-76
2024/03/20 07:59:25;;;;;;;17.70;10.75;;;;;;;;;;4972748;28;25062;-74
2024/03/20 08:01:51;;;;;;;20.73;11.07;;;;;;;;;;4965175;28;25055;-75
2024/03/20 08:04:18;;;;;;;17.58;11.27;;;;;;;;;;4976000;28;25113;-76
2024/03/20 08:06:45;;;;;;;19.52;10.80;;;;;;;;;;4985728;28;25065;-74
2024/03/20 08:09:11;;;;;;;14.93;9.55;;;;;;;;;;4979090;28;25062;-74
2024/03/20 08:11:37;;;;;;;15.60;9.20;;;;;;;;;;4974602;28;25081;-77
2024/03/20 08:14:13;;;;;;;23.02;9.82;;;;;;;;;;4972033;28;25075;-74
2024/03/20 08:16:39;;;;;;;14.73;8.55;;;;;;;;;;4975729;28;25063;-75
2024/03/20 08:19:06;;;;;;;15.95;8.43;;;;;;;;;;4972783;28;25105;-73
2024/03/20 08:21:33;;;;;;;16.48;8.48;;;;;;;;;;4965101;28;25084;-77
2024/03/20 08:24:00;;;;;;;16.58;8.93;;;;;;;;;;4972943;28;25080;-73
2024/03/20 08:26:26;;;;;;;18.05;7.55;;;;;;;;;;4971810;28;25107;-74
2024/03/20 08:28:52;;;;;;;17.55;8.82;;;;;;;;;;4980524;28;25065;-75
2024/03/20 08:31:18;;;;;;;17.33;8.02;;;;;;;;;;4978249;28;25075;-75
2024/03/20 08:33:45;;;;;;;14.38;7.55;;;;;;;;;;4979260;28;25065;-74
2024/03/20 08:36:12;;;;;;;17.85;8.18;;;;;;;;;;4968982;28;25056;-74
2024/03/20 08:38:38;;;;;;;20.83;8.32;;;;;;;;;;4970934;28;25062;-72
2024/03/20 08:41:07;;;;;;;18.95;8.70;;;;;;;;;;4966680;28;25062;-74
2024/03/20 08:43:33;;;;;;;19.13;8.80;;;;;;;;;;4971110;28;25073;-77
2024/03/20 08:46:00;;;;;;;20.65;8.48;;;;;;;;;;4971867;28;25086;-75
2024/03/20 08:48:28;;;;;;;21.90;8.82;;;;;;;;;;4972256;28;25079;-75
2024/03/20 08:50:54;;;;;;;16.73;8.75;;;;;;;;;;4994467;28;25075;-75
2024/03/20 08:53:20;;;;;;;23.15;9.13;;;;;;;;;;4978103;28;25105;-74
2024/03/20 08:55:47;;;;;;;21.58;9.20;;;;;;;;;;4979051;28;25073;-74
2024/03/20 08:58:13;;;;;;;21.00;9.15;;;;;;;;;;4979212;28;25092;-78
2024/03/20 09:00:39;;;;;;;19.02;7.10;;;;;;;;;;4971709;28;25118;-77
2024/03/20 09:03:06;;;;;;;18.38;7.22;;;;;;;;;;4971994;28;25048;-75
2024/03/20 09:05:32;;;;;;;16.83;7.35;;;;;;;;;;4973218;28;25055;-77
2024/03/20 09:07:58;;;;;;;19.30;8.13;;;;;;;;;;4973188;28;25094;-73
2024/03/20 09:10:24;;;;;;;16.25;7.55;;;;;;;;;;4973042;28;25156;-75
2024/03/20 09:12:50;;;;;;;12.57;7.10;;;;;;;;;;4984014;28;25112;-76
2024/03/20 09:15:16;;;;;;;17.88;9.00;;;;;;;;;;4967214;28;25060;-75
2024/03/20 09:17:42;;;;;;;19.38;8.40;;;;;;;;;;4973992;28;25060;-74
2024/03/20 09:20:19;;;;;;;23.27;9.63;;;;;;;;;;4977686;28;25058;-75
2024/03/20 09:22:49;;;;;;;20.88;9.27;;;;;;;;;;4992352;28;25052;-73
2024/03/20 09:25:15;;;;;;;18.42;9.13;;;;;;;;;;4978850;28;25057;-74
2024/03/20 09:27:41;;;;;;;14.57;8.60;;;;;;;;;;4978445;28;25158;-74
2024/03/20 09:30:08;;;;;;;14.88;8.77;;;;;;;;;;4978045;28;25072;-73
2024/03/20 09:32:35;;;;;;;21.80;10.63;;;;;;;;;;4975543;28;25085;-74
2024/03/20 09:35:01;;;;;;;23.83;12.85;;;;;;;;;;4978428;28;25118;-71
2024/03/20 09:37:27;;;;;;;21.20;11.90;;;;;;;;;;4983441;28;25067;-74
2024/03/20 09:39:54;;;;;;;21.13;12.50;;;;;;;;;;4979044;28;25075;-73
2024/03/20 09:42:23;;;;;;;29.48;13.38;;;;;;;;;;4979808;28;25085;-73
2024/03/20 09:44:49;;;;;;;21.30;11.68;;;;;;;;;;4978615;28;25075;-73
2024/03/20 09:47:16;;;;;;;18.95;9.15;;;;;;;;;;4978423;28;25056;-73
2024/03/20 09:49:43;;;;;;;20.15;10.27;;;;;;;;;;4979124;28;25106;-75
2024/03/20 09:52:10;;;;;;;22.00;10.52;;;;;;;;;;4981365;28;25099;-76
2024/03/20 09:54:36;;;;;;;25.77;11.98;;;;;;;;;;4986480;28;25078;-74
2024/03/20 09:57:02;;;;;;;20.10;9.55;;;;;;;;;;4971672;28;25140;-73
2024/03/20 09:59:29;;;;;;;23.90;12.18;;;;;;;;;;4979882;28;25099;-74
2024/03/20 10:01:55;;;;;;;21.85;12.35;;;;;;;;;;4974278;28;25065;-74
2024/03/20 10:04:26;;;;;;;21.25;13.10;;;;;;;;;;4975205;28;25061;-74
2024/03/20 10:06:52;;;;;;;18.42;11.35;;;;;;;;;;4969990;28;25043;-74
2024/03/20 10:09:20;;;;;;;25.63;13.00;;;;;;;;;;4986898;28;25082;-74
2024/03/20 10:11:47;;;;;;;21.38;12.95;;;;;;;;;;4984027;28;25075;-73
2024/03/20 10:14:13;;;;;;;23.48;13.02;;;;;;;;;;4986326;28;25134;-73
2024/03/20 10:16:40;;;;;;;22.08;12.50;;;;;;;;;;4983218;28;25103;-75
2024/03/20 10:19:06;;;;;;;19.98;11.48;;;;;;;;;;4981348;28;25073;-75
2024/03/20 10:21:35;;;;;;;23.20;11.50;;;;;;;;;;4978788;28;25063;-74
2024/03/20 10:24:01;;;;;;;21.92;11.55;;;;;;;;;;4972589;28;25113;-74
2024/03/20 10:26:27;;;;;;;21.17;11.70;;;;;;;;;;4984860;28;25107;-73
2024/03/20 10:28:56;;;;;;;26.25;13.00;;;;;;;;;;4977023;28;25109;-76
2024/03/20 10:31:22;;;;;;;23.17;11.80;;;;;;;;;;4974068;28;25079;-74
2024/03/20 10:33:49;;;;;;;20.92;11.05;;;;;;;;;;4979377;28;25059;-72
2024/03/20 10:36:17;;;;;;;20.58;12.00;;;;;;;;;;4990001;28;25073;-73
2024/03/20 10:38:44;;;;;;;18.50;10.82;;;;;;;;;;4983595;28;25058;-73
2024/03/20 10:41:12;;;;;;;29.80;13.25;;;;;;;;;;4972370;28;25059;-73
2024/03/20 10:43:38;;;;;;;23.20;13.32;;;;;;;;;;4976903;28;25069;-73
2024/03/20 10:46:11;;;;;;;24.02;12.63;;;;;;;;;;4979626;28;25088;-75
2024/03/20 10:48:37;;;;;;;20.13;11.63;;;;;;;;;;4982994;28;25088;-74
2024/03/20 10:51:04;;;;;;;22.58;12.70;;;;;;;;;;4982957;28;25109;-75
2024/03/20 10:53:30;;;;;;;20.90;12.57;;;;;;;;;;4975436;28;25047;-75
2024/03/20 10:55:57;;;;;;;24.23;12.48;;;;;;;;;;4975250;28;25079;-74
2024/03/20 10:58:25;;;;;;;23.95;11.88;;;;;;;;;;4979132;28;25072;-74
2024/03/20 11:00:55;;;;;;;27.10;11.75;;;;;;;;;;4975938;28;25059;-74
2024/03/20 11:03:40;;;;;;;25.42;12.73;;;;;;;;;;4983733;28;25075;-73
2024/03/20 11:06:33;;;;;;;18.67;11.38;;;;;;;;;;4976118;28;25068;-74
2024/03/20 11:09:17;;;;;;;21.20;11.93;;;;;;;;;;4973113;28;25071;-74
2024/03/20 11:11:53;;;;;;;23.08;10.68;;;;;;;;;;4979881;28;25057;-73
2024/03/20 11:14:27;;;;;;;20.33;12.13;;;;;;;;;;4973723;28;25082;-74
2024/03/20 11:16:54;;;;;;;25.92;13.55;;;;;;;;;;4969358;28;25055;-73
2024/03/20 11:19:20;;;;;;;22.50;12.88;;;;;;;;;;4974845;28;25068;-72
2024/03/20 11:21:53;;;;;;;28.55;12.90;;;;;;;;;;4970439;28;25056;-73
2024/03/20 11:24:19;;;;;;;16.55;11.63;;;;;;;;;;4982496;28;25048;-73
2024/03/20 11:26:45;;;;;;;24.08;12.35;;;;;;;;;;4980523;28;25073;-73
2024/03/20 11:29:12;;;;;;;21.25;11.48;;;;;;;;;;4977463;28;25064;-75
2024/03/20 11:31:39;;;;;;;21.35;12.45;;;;;;;;;;4979473;28;25076;-75
2024/03/20 11:34:05;;;;;;;25.55;12.75;;;;;;;;;;4976202;28;25073;-73
2024/03/20 11:36:31;;;;;;;22.95;12.40;;;;;;;;;;4982070;28;25080;-73
2024/03/20 11:38:58;;;;;;;27.00;14.30;;;;;;;;;;4975949;28;25065;-74
2024/03/20 11:41:24;;;;;;;24.63;13.57;;;;;;;;;;4977361;28;25063;-73
2024/03/20 11:43:50;;;;;;;29.45;13.00;;;;;;;;;;4967608;28;25100;-76
2024/03/20 11:46:23;;;;;;;24.25;12.60;;;;;;;;;;4971079;28;25074;-72
2024/03/20 11:48:52;;;;;;;21.02;12.23;;;;;;;;;;4967308;28;25074;-71
2024/03/20 11:51:22;;;;;;;21.83;13.25;;;;;;;;;;4980102;28;25052;-74
2024/03/20 11:53:51;;;;;;;29.95;13.90;;;;;;;;;;4975803;28;25060;-73
2024/03/20 11:56:18;;;;;;;26.98;14.05;;;;;;;;;;4991226;28;25067;-73
2024/03/20 11:58:48;;;;;;;23.60;13.68;;;;;;;;;;4976334;28;25084;-73
2024/03/20 12:01:14;;;;;;;24.70;13.43;;;;;;;;;;4971506;28;25099;-73
2024/03/20 12:03:42;;;;;;;26.52;13.52;;;;;;;;;;4979239;28;25088;-74
2024/03/20 12:06:09;;;;;;;23.67;13.63;;;;;;;;;;4977201;28;25077;-75
2024/03/20 12:08:35;;;;;;;24.85;12.70;;;;;;;;;;4970633;28;25060;-73
2024/03/20 12:11:13;;;;;;;23.50;12.93;;;;;;;;;;4975496;28;25062;-73
2024/03/20 12:13:39;;;;;;;24.60;12.98;;;;;;;;;;4968939;28;25063;-73
2024/03/20 12:16:07;;;;;;;20.95;13.10;;;;;;;;;;4976578;28;25067;-74
2024/03/20 12:18:33;;;;;;;20.13;12.38;;;;;;;;;;4974342;28;25044;-75
2024/03/20 12:20:59;;;;;;;24.05;12.93;;;;;;;;;;4973713;28;25068;-76
2024/03/20 12:23:25;;;;;;;21.25;14.50;;;;;;;;;;4972842;28;25050;-74
2024/03/20 12:25:52;;;;;;;21.35;12.07;;;;;;;;;;4976096;28;25081;-73
2024/03/20 12:28:18;;;;;;;21.75;12.45;;;;;;;;;;4974523;28;25075;-73
2024/03/20 12:30:44;;;;;;;20.52;13.13;;;;;;;;;;4980669;28;25095;-73
2024/03/20 12:33:10;;;;;;;28.00;13.68;;;;;;;;;;4980065;28;25065;-73
2024/03/20 12:35:36;;;;;;;26.80;14.25;;;;;;;;;;4975705;28;25066;-73
2024/03/20 12:38:02;;;;;;;24.90;14.50;;;;;;;;;;4986813;28;25113;-73
2024/03/20 12:40:28;;;;;;;27.80;12.15;;;;;;;;;;4980408;28;25076;-75
2024/03/20 12:42:55;;;;;;;21.77;13.15;;;;;;;;;;4977013;28;25044;-73
2024/03/20 12:45:22;;;;;;;21.30;14.02;;;;;;;;;;4974661;28;25149;-74
2024/03/20 12:47:48;;;;;;;20.00;12.70;;;;;;;;;;4977775;28;25078;-75
2024/03/20 12:50:14;;;;;;;19.50;12.00;;;;;;;;;;4986543;28;25072;-74
2024/03/20 12:52:40;;;;;;;24.73;12.35;;;;;;;;;;4977623;28;25073;-76
2024/03/20 12:55:08;;;;;;;20.63;13.43;;;;;;;;;;4981238;28;25118;-74
2024/03/20 12:57:35;;;;;;;24.27;13.18;;;;;;;;;;4969680;28;25068;-74
2024/03/20 13:00:03;;;;;;;21.35;13.00;;;;;;;;;;4973424;28;25162;-75
2024/03/20 13:02:31;;;;;;;19.88;11.93;;;;;;;;;;4976375;28;25084;-75
2024/03/20 13:04:57;;;;;;;24.45;13.13;;;;;;;;;;4979280;28;25100;-74
2024/03/20 13:07:23;;;;;;;20.63;12.82;;;;;;;;;;4969953;28;25070;-74
2024/03/20 13:09:50;;;;;;;24.70;13.30;;;;;;;;;;4967276;28;25069;-73
2024/03/20 13:12:18;;;;;;;25.20;12.98;;;;;;;;;;4961113;28;25047;-75
2024/03/20 13:14:44;;;;;;;18.15;12.38;;;;;;;;;;4983566;28;25089;-75
2024/03/20 13:17:14;;;;;;;22.52;13.60;;;;;;;;;;4980501;28;25091;-75
2024/03/20 13:19:40;;;;;;;26.63;13.77;;;;;;;;;;4981842;28;25058;-72
2024/03/20 13:22:12;;;;;;;21.48;13.88;;;;;;;;;;4978938;28;24980;-74
2024/03/20 13:24:38;;;;;;;20.52;12.98;;;;;;;;;;4983113;28;25060;-74
2024/03/20 13:27:07;;;;;;;22.58;13.40;;;;;;;;;;4978196;28;25093;-72
2024/03/20 13:29:38;;;;;;;26.73;13.50;;;;;;;;;;4980684;28;25069;-75
2024/03/20 13:32:04;;;;;;;21.35;11.95;;;;;;;;;;4970143;28;25074;-74
2024/03/20 13:34:31;;;;;;;18.05;12.27;;;;;;;;;;4974331;28;25048;-74
2024/03/20 13:36:57;;;;;;;20.63;12.05;;;;;;;;;;4969056;28;25059;-75
2024/03/20 13:39:33;;;;;;;20.05;12.10;;;;;;;;;;4968765;28;25154;-73
2024/03/20 13:42:09;;;;;;;19.50;11.18;;;;;;;;;;4970699;28;25054;-75
2024/03/20 13:44:38;;;;;;;18.92;12.52;;;;;;;;;;4973778;28;25042;-73
2024/03/20 13:47:05;;;;;;;19.63;12.63;;;;;;;;;;4975700;28;25072;-73
2024/03/20 13:49:31;;;;;;;18.50;12.02;;;;;;;;;;4988045;28;25060;-74
2024/03/20 13:51:59;;;;;;;24.98;12.75;;;;;;;;;;4990683;28;25096;-73
2024/03/20 13:54:25;;;;;;;16.33;11.70;;;;;;;;;;4970502;28;25070;-74
2024/03/20 13:56:53;;;;;;;23.90;12.50;;;;;;;;;;4976387;28;25121;-72
2024/03/20 13:59:22;;;;;;;19.80;13.30;;;;;;;;;;4984619;28;25077;-72
2024/03/20 14:01:48;;;;;;;19.98;13.13;;;;;;;;;;4972582;28;25079;-75
2024/03/20 14:04:14;;;;;;;21.17;11.88;;;;;;;;;;4970518;28;25064;-72
2024/03/20 14:06:40;;;;;;;24.17;13.10;;;;;;;;;;4981485;28;25105;-74
2024/03/20 14:09:07;;;;;;;19.23;13.13;;;;;;;;;;4985999;28;25072;-72
2024/03/20 14:11:33;;;;;;;22.58;13.07;;;;;;;;;;4981629;28;25057;-74
2024/03/20 14:13:59;;;;;;;19.60;12.77;;;;;;;;;;4980571;28;25084;-74
2024/03/20 14:16:30;;;;;;;26.08;14.15;;;;;;;;;;4976522;28;25076;-74
2024/03/20 14:18:57;;;;;;;20.85;13.20;;;;;;;;;;4976797;28;25088;-73